createdAt,value
2022-09-03T00:01:47.237Z,0.20
2022-09-03T00:04:23.878Z,0.20
2022-09-03T00:07:01.794Z,0.20
2022-09-03T00:09:35.304Z,0.20
2022-09-03T00:12:10.220Z,0.20
2022-09-03T00:14:43.999Z,0.10
2022-09-03T00:17:16.311Z,0.20
2022-09-03T00:19:49.459Z,0.20
2022-09-03T00:22:22.723Z,0.20
2022-09-03T00:24:51.589Z,0.20
2022-09-03T00:27:23.745Z,0.13
2022-09-03T00:30:00.330Z,0.20
2022-09-03T00:32:38.128Z,0.20
2022-09-03T00:35:17.042Z,0.20
2022-09-03T00:37:46.019Z,0.20
2022-09-03T00:40:31.572Z,0.20
2022-09-03T00:43:09.264Z,0.10
2022-09-03T00:45:45.270Z,0.20
2022-09-03T00:48:23.920Z,0.20
2022-09-03T00:51:18.110Z,0.20
2022-09-03T00:53:53.453Z,0.20
2022-09-03T00:56:32.426Z,0.20
2022-09-03T00:59:25.528Z,0.20
2022-09-03T01:02:08.841Z,0.20
2022-09-03T01:04:53.598Z,0.20
2022-09-03T01:07:36.831Z,0.20
2022-09-03T01:10:15.185Z,0.20
2022-09-03T01:12:53.626Z,0.20
2022-09-03T01:15:32.331Z,0.20
2022-09-03T01:18:13.140Z,0.20
2022-09-03T01:20:51.598Z,0.20
2022-09-03T01:24:07.470Z,0.20
2022-09-03T01:27:05.752Z,0.20
2022-09-03T01:29:40.902Z,0.20
2022-09-03T01:32:29.438Z,0.20
2022-09-03T01:35:16.429Z,0.10
2022-09-03T01:37:59.275Z,0.20
2022-09-03T01:40:36.600Z,0.20
2022-09-03T01:43:21.263Z,0.20
2022-09-03T01:45:59.777Z,0.20
2022-09-03T01:48:42.268Z,0.20
2022-09-03T01:51:20.697Z,0.20
2022-09-03T01:54:38.613Z,0.20
2022-09-03T01:57:42.648Z,0.20
2022-09-03T02:00:20.510Z,0.20
2022-09-03T02:02:52.140Z,0.20
2022-09-03T02:05:24.841Z,0.30
2022-09-03T02:08:05.473Z,0.20
2022-09-03T02:10:41.352Z,0.20
2022-09-03T02:13:14.639Z,0.10
2022-09-03T02:15:47.193Z,0.20
2022-09-03T02:18:21.005Z,0.20
2022-09-03T02:21:05.522Z,0.20
2022-09-03T02:23:35.724Z,0.20
2022-09-03T02:26:05.078Z,0.20
2022-09-03T02:28:34.426Z,0.10
2022-09-03T02:31:03.810Z,0.20
2022-09-03T02:33:38.300Z,0.20
2022-09-03T02:36:09.043Z,0.20
2022-09-03T02:38:37.199Z,0.20
2022-09-03T02:41:05.499Z,0.20
2022-09-03T02:43:42.748Z,0.20
2022-09-03T02:46:21.835Z,0.20
2022-09-03T02:48:51.136Z,0.20
2022-09-03T02:51:18.988Z,0.20
2022-09-03T02:53:50.912Z,0.20
2022-09-03T02:56:28.095Z,0.20
2022-09-03T02:59:00.357Z,0.27
2022-09-03T03:02:01.182Z,0.20
2022-09-03T03:04:37.495Z,0.20
2022-09-03T03:07:15.305Z,0.20
2022-09-03T03:09:46.049Z,0.10
2022-09-03T03:12:13.865Z,0.20
2022-09-03T03:14:42.789Z,0.20
2022-09-03T03:17:15.097Z,0.20
2022-09-03T03:19:44.732Z,0.20
2022-09-03T03:22:13.049Z,0.20
2022-09-03T03:24:44.063Z,0.20
2022-09-03T03:27:13.301Z,0.20
2022-09-03T03:29:42.306Z,0.20
2022-09-03T03:32:11.245Z,0.20
2022-09-03T03:34:39.987Z,0.20
2022-09-03T03:37:10.994Z,0.20
2022-09-03T03:39:38.842Z,0.30
2022-09-03T03:42:14.192Z,0.30
2022-09-03T03:44:44.903Z,0.20
2022-09-03T03:47:13.375Z,0.27
2022-09-03T03:49:42.392Z,0.30
2022-09-03T03:52:11.897Z,0.20
2022-09-03T03:54:39.797Z,0.20
2022-09-03T03:57:07.573Z,0.20
2022-09-03T03:59:36.585Z,0.20
2022-09-03T04:02:06.444Z,0.20
2022-09-03T04:04:42.751Z,0.20
2022-09-03T04:07:14.971Z,0.20
2022-09-03T04:09:44.818Z,0.20
2022-09-03T04:12:13.596Z,0.20
2022-09-03T04:14:41.902Z,0.20
2022-09-03T04:17:19.259Z,0.20
2022-09-03T04:19:50.647Z,0.30
2022-09-03T04:22:20.815Z,0.20
2022-09-03T04:24:49.722Z,0.20
2022-09-03T04:27:17.636Z,0.20
2022-09-03T04:29:46.567Z,0.20
2022-09-03T04:32:46.496Z,0.20
2022-09-03T04:35:14.470Z,0.20
2022-09-03T04:37:44.716Z,0.10
2022-09-03T04:40:12.741Z,0.20
2022-09-03T04:42:42.938Z,0.20
2022-09-03T04:45:15.838Z,0.20
2022-09-03T04:47:46.088Z,0.20
2022-09-03T04:50:15.018Z,0.20
2022-09-03T04:52:45.466Z,0.10
2022-09-03T04:55:16.973Z,0.20
2022-09-03T04:57:46.648Z,0.20
2022-09-03T05:00:18.180Z,0.20
2022-09-03T05:02:51.805Z,0.20
2022-09-03T05:05:21.800Z,0.23
2022-09-03T05:08:01.804Z,0.20
2022-09-03T05:10:30.105Z,0.20
2022-09-03T05:13:09.391Z,0.20
2022-09-03T05:15:38.363Z,0.20
2022-09-03T05:18:06.379Z,0.20
2022-09-03T05:20:39.587Z,0.20
2022-09-03T05:23:09.113Z,0.20
2022-09-03T05:25:38.422Z,0.20
2022-09-03T05:28:06.364Z,0.30
2022-09-03T05:30:36.737Z,0.20
2022-09-03T05:33:06.205Z,0.17
2022-09-03T05:35:35.708Z,0.30
2022-09-03T05:38:03.706Z,0.20
2022-09-03T05:40:33.858Z,0.20
2022-09-03T05:43:04.284Z,0.20
2022-09-03T05:45:36.386Z,0.20
2022-09-03T05:48:04.643Z,0.20
2022-09-03T05:50:32.580Z,0.20
2022-09-03T05:53:01.550Z,0.20
2022-09-03T05:55:30.135Z,0.20
2022-09-03T05:57:59.639Z,0.20
2022-09-03T06:00:39.671Z,0.20
2022-09-03T06:03:07.701Z,0.20
2022-09-03T06:05:35.782Z,0.20
2022-09-03T06:08:03.997Z,0.20
2022-09-03T06:10:40.265Z,0.27
2022-09-03T06:13:10.649Z,0.20
2022-09-03T06:15:38.785Z,0.20
2022-09-03T06:18:07.536Z,0.20
2022-09-03T06:20:37.356Z,0.20
2022-09-03T06:23:05.396Z,0.20
2022-09-03T06:25:33.655Z,0.20
2022-09-03T06:28:02.230Z,0.20
2022-09-03T06:30:31.823Z,0.20
2022-09-03T06:32:59.754Z,0.20
2022-09-03T06:35:28.778Z,0.20
2022-09-03T06:38:00.703Z,0.20
2022-09-03T06:40:30.969Z,0.20
2022-09-03T06:43:03.749Z,0.20
2022-09-03T06:45:38.361Z,0.20
2022-09-03T06:48:06.556Z,0.20
2022-09-03T06:50:34.816Z,0.20
2022-09-03T06:53:03.049Z,0.20
2022-09-03T06:55:40.197Z,0.20
2022-09-03T06:58:10.938Z,0.20
2022-09-03T07:00:45.638Z,0.10
2022-09-03T07:03:13.627Z,0.20
2022-09-03T07:05:42.447Z,0.10
2022-09-03T07:08:11.187Z,0.20
2022-09-03T07:10:41.339Z,0.20
2022-09-03T07:13:12.829Z,0.20
2022-09-03T07:15:42.449Z,0.20
2022-09-03T07:18:15.381Z,0.20
2022-09-03T07:20:44.334Z,0.20
2022-09-03T07:23:19.575Z,0.20
2022-09-03T07:25:54.709Z,0.20
2022-09-03T07:28:26.064Z,0.10
2022-09-03T07:31:04.897Z,0.20
2022-09-03T07:33:41.113Z,0.20
2022-09-03T07:36:16.735Z,0.20
2022-09-03T07:38:46.108Z,0.20
2022-09-03T07:41:19.326Z,0.20
2022-09-03T07:43:57.535Z,0.20
2022-09-03T07:46:28.747Z,0.10
2022-09-03T07:48:59.319Z,0.10
2022-09-03T07:51:28.983Z,0.10
2022-09-03T07:53:59.111Z,0.20
2022-09-03T07:56:28.027Z,0.20
2022-09-03T07:58:56.957Z,0.10
2022-09-03T08:01:28.598Z,0.20
2022-09-03T08:03:57.180Z,0.10
2022-09-03T08:06:27.338Z,0.20
2022-09-03T08:09:04.450Z,0.20
2022-09-03T08:11:38.180Z,0.10
2022-09-03T08:14:08.484Z,0.20
2022-09-03T08:16:41.874Z,0.20
2022-09-03T08:19:12.057Z,0.20
2022-09-03T08:21:41.811Z,0.10
2022-09-03T08:24:11.025Z,0.20
2022-09-03T08:26:41.933Z,0.10
2022-09-03T08:29:10.501Z,0.20
2022-09-03T08:31:39.717Z,0.20
2022-09-03T08:34:08.576Z,0.10
2022-09-03T08:36:38.807Z,0.20
2022-09-03T08:39:09.987Z,0.20
2022-09-03T08:41:55.061Z,0.17
2022-09-03T08:44:26.880Z,0.10
2022-09-03T08:47:01.031Z,0.10
2022-09-03T08:49:35.950Z,0.10
2022-09-03T08:52:08.973Z,0.10
2022-09-03T08:54:38.212Z,0.10
2022-09-03T08:57:09.608Z,0.10
2022-09-03T08:59:37.512Z,0.10
2022-09-03T09:02:25.533Z,0.20
2022-09-03T09:05:02.173Z,0.10
2022-09-03T09:07:40.696Z,0.10
2022-09-03T09:10:17.386Z,0.13
2022-09-03T09:12:56.455Z,0.10
2022-09-03T09:15:31.890Z,0.10
2022-09-03T09:18:14.959Z,0.10
2022-09-03T09:20:50.504Z,0.10
2022-09-03T09:23:27.660Z,0.10
2022-09-03T09:26:05.747Z,0.10
2022-09-03T09:28:36.521Z,0.10
2022-09-03T09:31:07.746Z,0.10
2022-09-03T09:33:37.303Z,0.10
2022-09-03T09:36:09.388Z,0.10
2022-09-03T09:38:39.157Z,0.20
2022-09-03T09:41:11.961Z,0.10
2022-09-03T09:43:40.080Z,0.10
2022-09-03T09:46:13.167Z,0.10
2022-09-03T09:48:52.098Z,0.10
2022-09-03T09:51:28.259Z,0.10
2022-09-03T09:54:03.772Z,0.10
2022-09-03T09:56:32.035Z,0.07
2022-09-03T09:59:08.131Z,0.10
2022-09-03T10:01:39.158Z,0.10
2022-09-03T10:04:13.095Z,0.03
2022-09-03T10:06:57.222Z,0.10
2022-09-03T10:09:31.092Z,0.10
2022-09-03T10:12:11.198Z,0.10
2022-09-03T10:14:43.625Z,0.10
2022-09-03T10:17:20.433Z,0.10
2022-09-03T10:20:28.337Z,0.10
2022-09-03T10:22:59.126Z,0.10
2022-09-03T10:25:39.270Z,0.10
2022-09-03T10:28:13.469Z,0.10
2022-09-03T10:31:02.125Z,0.10
2022-09-03T10:33:35.010Z,0.10
2022-09-03T10:36:13.548Z,0.10
2022-09-03T10:38:43.915Z,0.10
2022-09-03T10:41:26.636Z,0.10
2022-09-03T10:44:11.224Z,0.10
2022-09-03T10:47:02.767Z,0.00
2022-09-03T10:49:50.578Z,0.00
2022-09-03T10:52:28.834Z,0.00
2022-09-03T10:55:11.722Z,0.00
2022-09-03T10:57:49.489Z,0.00
2022-09-03T11:00:18.907Z,0.00
2022-09-03T11:03:26.192Z,0.00
2022-09-03T11:06:03.013Z,0.10
2022-09-03T11:08:38.880Z,0.00
2022-09-03T11:11:15.253Z,0.00
2022-09-03T11:13:50.209Z,0.00
2022-09-03T11:16:22.443Z,0.00
2022-09-03T11:18:55.024Z,0.10
2022-09-03T11:21:25.859Z,0.00
2022-09-03T11:24:05.559Z,0.00
2022-09-03T11:26:35.272Z,0.03
2022-09-03T11:29:08.212Z,0.00
2022-09-03T11:31:48.142Z,0.00
2022-09-03T11:34:32.191Z,0.10
2022-09-03T11:37:18.752Z,0.00
2022-09-03T11:39:56.908Z,0.00
2022-09-03T11:42:33.011Z,0.00
2022-09-03T11:45:14.610Z,0.00
2022-09-03T11:47:44.673Z,0.00
2022-09-03T11:50:21.647Z,0.00
2022-09-03T11:52:51.812Z,0.00
2022-09-03T11:55:43.168Z,0.00
2022-09-03T11:58:13.618Z,0.00
2022-09-03T12:00:44.557Z,0.00
2022-09-03T12:03:18.009Z,0.00
2022-09-03T12:05:54.879Z,0.00
2022-09-03T12:08:47.201Z,0.00
2022-09-03T12:11:34.624Z,0.00
2022-09-03T12:14:14.173Z,0.08
2022-09-03T12:17:10.215Z,0.00
2022-09-03T12:19:42.506Z,0.00
2022-09-03T12:22:15.049Z,0.05
2022-09-03T12:24:44.963Z,0.00
2022-09-03T12:27:22.630Z,0.00
2022-09-03T12:29:59.444Z,0.00
2022-09-03T12:32:30.177Z,0.00
2022-09-03T12:34:58.167Z,0.00
2022-09-03T12:40:22.130Z,0.00
2022-09-03T12:42:51.818Z,0.00
2022-09-03T12:45:23.504Z,0.00
2022-09-03T12:47:53.296Z,0.00
2022-09-03T12:50:23.971Z,0.00
2022-09-03T12:52:55.019Z,0.00
2022-09-03T12:55:31.170Z,0.00
2022-09-03T12:58:13.409Z,0.00
2022-09-03T13:00:46.964Z,0.00
2022-09-03T13:03:21.120Z,0.00
2022-09-03T13:05:54.133Z,0.00
2022-09-03T13:08:25.864Z,0.00
2022-09-03T13:10:57.773Z,0.00
2022-09-03T13:13:28.327Z,0.00
2022-09-03T13:16:16.443Z,0.00
2022-09-03T13:18:54.100Z,0.00
2022-09-03T13:21:36.597Z,0.00
2022-09-03T13:24:19.472Z,0.00
2022-09-03T13:26:57.489Z,0.00
2022-09-03T13:29:40.712Z,0.00
2022-09-03T13:32:19.609Z,0.10
2022-09-03T13:34:53.765Z,0.00
2022-09-03T13:37:29.697Z,0.00
2022-09-03T13:40:01.213Z,0.00
2022-09-03T13:42:37.020Z,0.00
2022-09-03T13:45:18.701Z,0.00
2022-09-03T13:48:09.775Z,0.00
2022-09-03T13:50:44.783Z,0.00
2022-09-03T13:53:22.183Z,0.00
2022-09-03T13:55:57.607Z,0.00
2022-09-03T13:58:31.637Z,0.00
2022-09-03T14:01:13.439Z,0.00
2022-09-03T14:03:48.968Z,0.00
2022-09-03T14:06:27.588Z,0.00
2022-09-03T14:09:07.989Z,0.00
2022-09-03T14:11:48.162Z,0.00
2022-09-03T14:14:26.481Z,0.00
2022-09-03T14:17:01.156Z,0.00
2022-09-03T14:19:38.688Z,0.00
2022-09-03T14:22:10.849Z,0.00
2022-09-03T14:24:51.198Z,0.00
2022-09-03T14:27:27.289Z,0.00
2022-09-03T14:30:01.253Z,0.00
2022-09-03T14:32:39.158Z,0.00
2022-09-03T14:35:25.105Z,0.00
2022-09-03T14:38:16.909Z,0.00
2022-09-03T14:40:47.280Z,0.00
2022-09-03T14:43:32.204Z,0.00
2022-09-03T14:46:12.409Z,0.00
2022-09-03T14:49:05.443Z,0.00
2022-09-03T14:51:47.490Z,0.00
2022-09-03T14:54:32.307Z,0.00
2022-09-03T14:57:19.870Z,0.00
2022-09-03T15:00:18.502Z,0.00
2022-09-03T15:03:13.275Z,0.00
2022-09-03T15:05:57.836Z,0.00
2022-09-03T15:08:50.456Z,0.00
2022-09-03T15:11:23.374Z,0.00
2022-09-03T15:13:55.174Z,0.00
2022-09-03T15:16:42.245Z,0.00
2022-09-03T15:19:36.085Z,0.00
2022-09-03T15:22:25.752Z,0.00
2022-09-03T15:25:18.334Z,0.00
2022-09-03T15:28:01.039Z,0.00
2022-09-03T15:30:37.786Z,0.00
2022-09-03T15:33:14.830Z,0.00
2022-09-03T15:36:16.242Z,0.00
2022-09-03T15:38:55.597Z,0.00
2022-09-03T15:41:35.732Z,0.00
2022-09-03T15:44:09.278Z,0.00
2022-09-03T15:46:49.565Z,0.00
2022-09-03T15:49:30.354Z,0.00
2022-09-03T15:52:09.674Z,0.00
2022-09-03T15:54:44.738Z,0.00
2022-09-03T15:57:19.468Z,0.00
2022-09-03T15:59:56.651Z,0.00
2022-09-03T16:02:33.438Z,0.00
2022-09-03T16:05:18.268Z,0.00
2022-09-03T16:08:11.450Z,0.00
2022-09-03T16:10:55.856Z,0.00
2022-09-03T16:13:37.124Z,0.00
2022-09-03T16:16:07.683Z,0.00
2022-09-03T16:18:40.848Z,0.00
2022-09-03T16:21:13.458Z,0.00
2022-09-03T16:23:48.346Z,0.00
2022-09-03T16:26:24.875Z,0.00
2022-09-03T16:29:01.599Z,0.00
2022-09-03T16:31:47.824Z,0.00
2022-09-03T16:34:27.462Z,0.00
2022-09-03T16:37:07.279Z,0.00
2022-09-03T16:39:48.266Z,0.10
2022-09-03T16:42:28.110Z,0.00
2022-09-03T16:45:11.858Z,0.00
2022-09-03T16:47:54.032Z,0.00
2022-09-03T16:50:40.179Z,0.00
2022-09-03T16:53:15.189Z,0.07
2022-09-03T16:56:01.045Z,0.00
2022-09-03T16:58:40.367Z,0.00
2022-09-03T17:01:21.573Z,0.10
2022-09-03T17:04:06.595Z,0.10
2022-09-03T17:06:51.061Z,0.10
2022-09-03T17:09:35.696Z,0.10
2022-09-03T17:12:09.480Z,0.10
2022-09-03T17:15:01.616Z,0.10
2022-09-03T17:17:45.842Z,0.00
2022-09-03T17:20:20.214Z,0.00
2022-09-03T17:23:01.519Z,0.07
2022-09-03T17:25:36.945Z,0.10
2022-09-03T17:28:26.243Z,0.10
2022-09-03T17:30:58.691Z,0.10
2022-09-03T17:34:07.264Z,0.10
2022-09-03T17:36:39.558Z,0.10
2022-09-03T17:39:38.088Z,0.10
2022-09-03T17:42:17.007Z,0.10
2022-09-03T17:44:59.513Z,0.10
2022-09-03T17:47:53.040Z,0.10
2022-09-03T17:50:26.002Z,0.10
2022-09-03T17:52:58.114Z,0.10
2022-09-03T17:55:33.779Z,0.10
2022-09-03T17:58:14.812Z,0.10
2022-09-03T18:00:52.916Z,0.20
2022-09-03T18:03:33.308Z,0.20
2022-09-03T18:06:05.492Z,0.10
2022-09-03T18:08:42.922Z,0.10
2022-09-03T18:11:13.114Z,0.10
2022-09-03T18:13:49.410Z,0.20
2022-09-03T18:16:22.838Z,0.10
2022-09-03T18:18:54.129Z,0.10
2022-09-03T18:21:43.705Z,0.10
2022-09-03T18:24:42.362Z,0.10
2022-09-03T18:27:30.967Z,0.10
2022-09-03T18:30:21.422Z,0.10
2022-09-03T18:33:07.236Z,0.10
2022-09-03T18:35:54.379Z,0.20
2022-09-03T18:38:44.922Z,0.10
2022-09-03T18:41:45.352Z,0.20
2022-09-03T18:44:40.266Z,0.10
2022-09-03T18:51:02.642Z,0.20
2022-09-03T18:53:59.445Z,0.20
2022-09-03T18:56:54.436Z,0.20
2022-09-03T19:00:04.374Z,0.20
2022-09-03T19:03:02.304Z,0.20
2022-09-03T19:06:02.002Z,0.20
2022-09-03T19:08:55.883Z,0.20
2022-09-03T19:11:56.092Z,0.20
2022-09-03T19:14:53.851Z,0.10
2022-09-03T19:17:47.769Z,0.10
2022-09-03T19:20:48.478Z,0.10
2022-09-03T19:23:39.427Z,0.20
2022-09-03T19:26:39.320Z,0.20
2022-09-03T19:29:36.171Z,0.20
2022-09-03T19:32:30.657Z,0.20
2022-09-03T19:35:29.627Z,0.20
2022-09-03T19:38:30.508Z,0.10
2022-09-03T19:41:35.164Z,0.20
2022-09-03T19:44:57.352Z,0.20
2022-09-03T19:47:53.201Z,0.20
2022-09-03T19:50:50.167Z,0.10
2022-09-03T19:53:37.631Z,0.20
2022-09-03T19:56:31.405Z,0.20
2022-09-03T19:59:21.240Z,0.20
2022-09-03T20:02:09.486Z,0.10
2022-09-03T20:05:03.257Z,0.10
2022-09-03T20:07:49.330Z,0.10
2022-09-03T20:10:25.097Z,0.20
2022-09-03T20:13:10.614Z,0.20
2022-09-03T20:15:55.641Z,0.20
2022-09-03T20:18:37.987Z,0.20
2022-09-03T20:21:14.061Z,0.20
2022-09-03T20:23:57.791Z,0.20
2022-09-03T20:26:36.738Z,0.20
2022-09-03T20:29:40.434Z,0.20
2022-09-03T20:32:16.086Z,0.20
2022-09-03T20:34:58.913Z,0.20
2022-09-03T20:37:38.305Z,0.10
2022-09-03T20:40:17.576Z,0.17
2022-09-03T20:43:09.440Z,0.20
2022-09-03T20:45:56.270Z,0.20
2022-09-03T20:48:53.085Z,0.20
2022-09-03T20:51:34.805Z,0.20
2022-09-03T20:54:15.044Z,0.20
2022-09-03T20:57:01.448Z,0.20
2022-09-03T20:59:38.796Z,0.20
2022-09-03T21:02:28.437Z,0.20
2022-09-03T21:05:15.210Z,0.20
2022-09-03T21:07:55.808Z,0.20
2022-09-03T21:10:33.256Z,0.20
2022-09-03T21:13:17.097Z,0.13
2022-09-03T21:15:57.211Z,0.30
2022-09-03T21:18:33.794Z,0.13
2022-09-03T21:21:16.902Z,0.20
2022-09-03T21:23:50.163Z,0.10
2022-09-03T21:26:23.028Z,0.20
2022-09-03T21:29:03.700Z,0.20
2022-09-03T21:31:38.644Z,0.17
2022-09-03T21:34:12.492Z,0.20
2022-09-03T21:36:45.012Z,0.20
2022-09-03T21:39:20.218Z,0.20
2022-09-03T21:41:55.623Z,0.20
2022-09-03T21:44:45.111Z,0.20
2022-09-03T21:47:16.259Z,0.20
2022-09-03T21:50:01.773Z,0.20
2022-09-03T21:52:40.620Z,0.20
2022-09-03T21:55:22.775Z,0.20
2022-09-03T21:58:12.420Z,0.20
2022-09-03T22:00:40.527Z,0.10
2022-09-03T22:03:10.150Z,0.10
2022-09-03T22:05:51.325Z,0.23
2022-09-03T22:08:36.310Z,0.20
2022-09-03T22:11:15.295Z,0.20
2022-09-03T22:13:50.473Z,0.20
2022-09-03T22:16:24.395Z,0.20
2022-09-03T22:18:52.410Z,0.20
2022-09-03T22:21:23.594Z,0.20
2022-09-03T22:24:22.196Z,0.20
2022-09-03T22:26:58.210Z,0.20
2022-09-03T22:29:44.799Z,0.20
2022-09-03T22:32:31.651Z,0.20
2022-09-03T22:35:16.008Z,0.20
2022-09-03T22:38:02.116Z,0.20
2022-09-03T22:40:41.527Z,0.20
2022-09-03T22:43:35.201Z,0.20
2022-09-03T22:46:10.401Z,0.20
2022-09-03T22:49:09.314Z,0.20
2022-09-03T22:51:53.890Z,0.20
2022-09-03T22:54:34.930Z,0.20
2022-09-03T22:57:07.706Z,0.20
2022-09-03T22:59:39.121Z,0.20
2022-09-03T23:02:11.936Z,0.20
2022-09-03T23:04:51.965Z,0.20
2022-09-03T23:07:34.948Z,0.20
2022-09-03T23:10:07.933Z,0.20
2022-09-03T23:12:44.244Z,0.20
2022-09-03T23:15:20.280Z,0.20
2022-09-03T23:17:54.591Z,0.20
2022-09-03T23:20:31.389Z,0.10
2022-09-03T23:23:07.122Z,0.10
2022-09-03T23:25:42.092Z,0.20
2022-09-03T23:28:23.903Z,0.20
2022-09-03T23:30:53.038Z,0.20
2022-09-03T23:33:20.994Z,0.20
2022-09-03T23:35:57.607Z,0.20
2022-09-03T23:38:37.042Z,0.20
2022-09-03T23:41:08.694Z,0.10
2022-09-03T23:44:11.227Z,0.20
2022-09-03T23:46:55.417Z,0.20
2022-09-03T23:49:36.484Z,0.20
2022-09-03T23:52:44.182Z,0.20
2022-09-03T23:55:25.097Z,0.20
2022-09-03T23:58:02.027Z,0.10
